• Join FlightAware (Why Join?)
  • Login
  • US Flag 
02:01PM EDT


 

Airport Tracker/Info


-or-


 

Live Flight TrackerFlight Track Log ✈ THY1302 ✈ 08-May-2013 ✈ LEVC / VLC - LTBA / IST

Flight Track Log - Related Links

Times and Time Zones

All times are in EDT time to prevent confusion due to time zone crossing. See the THY1302 flight status page for this flight to view local times or setup timezone preferences in your user account.

Time Position Orientation Groundspeed Altitude Reporting Facility
EDT Latitude Longitude Course Direction KTS MPH feet Rate Location/Type
09:02AM 39.9099 1.9797 77° East  Level Estimated
09:03AM 39.9345 2.1345 78° East  Level Estimated
09:04AM 39.9588 2.2894 78° East  Level Estimated
09:05AM 39.9830 2.4445 78° East  Level Estimated
09:06AM 40.0069 2.5996 79° East  Level Estimated
09:07AM 40.0306 2.7549 79° East  Level Estimated
09:08AM 40.0542 2.9102 79° East  Level Estimated
09:09AM 40.0775 3.0657 79° East  Level Estimated
09:10AM 40.1006 3.2213 79° East  Level Estimated
09:11AM 40.1235 3.3769 79° East  Level Estimated
09:12AM 40.1462 3.5327 79° East  Level Estimated
09:13AM 40.1687 3.6886 79° East  Level Estimated
09:14AM 40.1909 3.8446 79° East  Level Estimated
09:15AM 40.2130 4.0007 79° East  Level Estimated
09:16AM 40.2348 4.1569 80° East  Level Estimated
09:17AM 40.2565 4.3132 80° East  Level Estimated
09:18AM 40.2779 4.4696 80° East  Level Estimated
09:19AM 40.2991 4.6260 80° East  Level Estimated
09:20AM 40.3201 4.7826 80° East  Level Estimated
09:21AM 40.3409 4.9393 80° East  Level Estimated
09:22AM 40.3615 5.0961 80° East  Level Estimated
09:23AM 40.3819 5.2530 80° East  Level Estimated
09:24AM 40.4021 5.4099 80° East  Level Estimated
09:25AM 40.4220 5.5670 80° East  Level Estimated
09:26AM 40.4417 5.7241 81° East  Level Estimated
09:27AM 40.4613 5.8814 81° East  Level Estimated
09:28AM 40.4806 6.0387 81° East  Level Estimated
09:29AM 40.4997 6.1962 81° East  Level Estimated
09:30AM 40.5186 6.3537 81° East  Level Estimated
09:31AM 40.5372 6.5113 81° East  Level Estimated
09:32AM 40.5557 6.6690 81° East  Level Estimated
09:33AM 40.5739 6.8268 81° East  Level Estimated
09:34AM 40.5919 6.9846 81° East  Level Estimated
09:35AM 40.6098 7.1426 82° East  Level Estimated
09:36AM 40.6274 7.3006 82° East  Level Estimated
09:37AM 40.6447 7.4587 82° East  Level Estimated
09:38AM 40.6619 7.6169 82° East  Level Estimated
09:39AM 40.6788 7.7752 82° East  Level Estimated
09:40AM 40.6956 7.9336 82° East  Level Estimated
09:41AM 40.7121 8.0920 82° East  Level Estimated
09:42AM 40.7284 8.2505 82° East  Level Estimated
09:43AM 40.7445 8.4091 82° East  Level Estimated
09:44AM 40.7603 8.5678 82° East  Level Estimated
09:45AM 40.7760 8.7265 83° East  Level Estimated
09:46AM 40.7914 8.8853 83° East  Level Estimated
09:47AM 40.8066 9.0442 83° East  Level Estimated
09:48AM 40.8216 9.2032 83° East  Level Estimated
09:49AM 40.8364 9.3622 83° East  Level Estimated
09:50AM 40.8510 9.5213 83° East  Level Estimated
09:51AM 40.8653 9.6805 83° East  Level Estimated
09:52AM 40.8794 9.8398 83° East  Level Estimated
09:53AM 40.8933 9.9991 83° East  Level Estimated
09:54AM 40.9070 10.1585 83° East  Level Estimated
09:55AM 40.9205 10.3179 84° East  Level Estimated
09:56AM 40.9337 10.4774 84° East  Level Estimated
09:57AM 40.9467 10.6370 84° East  Level Estimated
09:58AM 40.9595 10.7966 84° East  Level Estimated
09:59AM 40.9721 10.9563 84° East  Level Estimated
10:00AM 40.9845 11.1160 84° East  Level Estimated
10:01AM 40.9966 11.2759 84° East  Level Estimated
10:02AM 41.0085 11.4357 84° East  Level Estimated
10:03AM 41.0202 11.5957 84° East  Level Estimated
10:04AM 41.0317 11.7556 85° East  Level Estimated
10:05AM 41.0430 11.9157 85° East  Level Estimated
10:06AM 41.0540 12.0758 85° East  Level Estimated
10:07AM 41.0648 12.2359 85° East  Level Estimated
10:08AM 41.0754 12.3961 85° East  Level Estimated
10:09AM 41.0858 12.5564 85° East  Level Estimated
10:10AM 41.0959 12.7167 85° East  Level Estimated
10:11AM 41.1059 12.8770 85° East  Level Estimated
10:12AM 41.1156 13.0374 85° East  Level Estimated
10:13AM 41.1250 13.1979 85° East  Level Estimated
10:14AM 41.1343 13.3584 86° East  Level Estimated
10:15AM 41.1433 13.5189 86° East  Level Estimated
10:16AM 41.1521 13.6795 86° East  Level Estimated
10:17AM 41.1607 13.8401 86° East  Level Estimated
10:18AM 41.1691 14.0008 86° East  Level Estimated
10:19AM 41.1772 14.1615 86° East  Level Estimated
10:20AM 41.1852 14.3222 86° East  Level Estimated
10:21AM 41.1929 14.4830 86° East  Level Estimated
10:22AM 41.2003 14.6438 86° East  Level Estimated
10:23AM 41.2076 14.8047 87° East  Level Estimated
10:24AM 41.2146 14.9656 87° East  Level Estimated
10:25AM 41.2214 15.1265 87° East  Level Estimated
10:26AM 41.2280 15.2875 87° East  Level Estimated
10:27AM 41.2343 15.4485 87° East  Level Estimated
10:28AM 41.2405 15.6095 87° East  Level Estimated
10:29AM 41.2464 15.7705 87° East  Level Estimated
10:30AM 41.2520 15.9316 87° East  Level Estimated
10:31AM 41.2575 16.0927 87° East  Level Estimated
10:32AM 41.2627 16.2539 87° East  Level Estimated
10:33AM 41.2677 16.4150 88° East  Level Estimated
10:34AM 41.2725 16.5762 88° East  Level Estimated
10:35AM 41.2771 16.7374 88° East  Level Estimated
10:36AM 41.2814 16.8986 88° East  Level Estimated
10:37AM 41.2855 17.0599 88° East  Level Estimated
10:38AM 41.2894 17.2211 88° East  Level Estimated
10:39AM 41.2931 17.3824 88° East  Level Estimated
10:40AM 41.2965 17.5437 88° East  Level Estimated
10:41AM 41.2997 17.7051 88° East  Level Estimated
10:42AM 41.3027 17.8664 89° East  Level Estimated
10:43AM 41.3054 18.0278 89° East  Level Estimated
10:44AM 41.3080 18.1891 89° East  Level Estimated
10:45AM 41.3103 18.3505 89° East  Level Estimated
10:46AM 41.3123 18.5119 89° East  Level Estimated
10:47AM 41.3142 18.6733 89° East  Level Estimated
10:48AM 41.3158 18.8347 89° East  Level Estimated
10:49AM 41.3172 18.9961 89° East  Level Estimated
10:50AM 41.3184 19.1575 89° East  Level Estimated
10:51AM 41.3194 19.3189 89° East  Level Estimated
10:52AM 41.3201 19.4804 90° East  Level Estimated
10:53AM 41.3206 19.6418 90° East  Level Estimated
10:54AM 41.3209 19.8032 90° East  Level Estimated
10:55AM 41.3209 19.9646 90° East  Level Estimated
10:56AM 41.3207 20.1261 90° East  Level Estimated
10:57AM 41.3203 20.2875 90° East  Level Estimated
10:58AM 41.3197 20.4489 90° East  Level Estimated
10:59AM 41.3189 20.6104 90° East  Level Estimated
11:00AM 41.3178 20.7718 90° East  Level Estimated
11:01AM 41.3165 20.9332 91° East  Level Estimated
11:02AM 41.3149 21.0946 91° East  Level Estimated
11:03AM 41.3132 21.2560 91° East  Level Estimated
11:04AM 41.3112 21.4174 91° East  Level Estimated
11:05AM 41.3090 21.5788 91° East  Level Estimated
11:06AM 41.3066 21.7402 91° East  Level Estimated
11:07AM 41.3039 21.9015 91° East  Level Estimated
11:08AM 41.3010 22.0629 91° East  Level Estimated
11:09AM 41.2979 22.2242 91° East  Level Estimated
11:10AM 41.2946 22.3855 92° East  Level Estimated
11:11AM 41.2910 22.5468 92° East  Level Estimated
11:12AM 41.2873 22.7081 92° East  Level Estimated
11:13AM 41.2832 22.8693 92° East  Level Estimated
11:14AM 41.2790 23.0306 92° East  Level Estimated
11:15AM 41.2746 23.1918 92° East  Level Estimated
11:16AM 41.2699 23.3530 92° East  Level Estimated
11:17AM 41.2650 23.5141 92° East  Level Estimated
11:18AM 41.2598 23.6753 92° East  Level Estimated
11:19AM 41.2545 23.8364 92° East  Level Estimated
11:20AM 41.2489 23.9975 93° East  Level Estimated
11:21AM 41.2431 24.1586 93° East  Level Estimated
11:22AM 41.2370 24.3196 93° East  Level Estimated
11:23AM 41.2308 24.4806 93° East  Level Estimated
11:24AM 41.2243 24.6416 93° East  Level Estimated
11:25AM 41.2176 24.8025 93° East  Level Estimated
11:26AM 41.2107 24.9634 93° East  Level Estimated
11:27AM 41.2035 25.1243 93° East  Level Estimated
11:28AM 41.1962 25.2851 93° East  Level Estimated
11:29AM 41.1886 25.4459 94° East  Level Estimated
11:30AM 41.1808 25.6067 94° East  Level Estimated
11:31AM 41.1727 25.7674 94° East  Level Estimated
11:32AM 41.1644 25.9281 94° East  Level Estimated
11:33AM 41.1559 26.0887 94° East  Level Estimated
11:34AM 41.1472 26.2493 94° East  Level Estimated
11:35AM 41.1383 26.4099 94° East  Level Estimated
11:36AM 41.1291 26.5704 94° East  Level Estimated
11:37AM 41.1198 26.7309 94° East  Level Estimated
11:38AM 41.1101 26.8913 94° East  Level Estimated
11:39AM 41.1003 27.0516 95° East  Level Estimated
11:40AM 41.0903 27.2120 95° East  Level Estimated
11:41AM 41.0800 27.3722 95° East  Level Estimated
11:42AM 41.0695 27.5324 95° East  Level Estimated
11:43AM 41.0588 27.6926 95° East  Level Estimated
11:44AM 41.0479 27.8527 95° East  Level Estimated
11:45AM 41.0367 28.0128 95° East  Level Estimated
11:46AM 41.0253 28.1728 95° East  Level Estimated
11:47AM 41.0137 28.3328 95° East  Level Estimated
11:48AM 41.0019 28.4927 96° East  Level Estimated
11:49AM 40.9898 28.6525 96° East  Level Estimated
11:50AM 40.9776 28.8123 96° East  Level Estimated
11:51AM 40.9769 28.8211 96° East  Level Estimated
11:52AM 40.9769 28.8211 21° North  Level Estimated
11:53AM 40.9769 28.8211 21° North  Level Estimated
11:54AM 40.9769 28.8211 21° North  Level Estimated
11:55AM 40.9769 28.8211 21° North  Level Estimated
11:56AM 40.9769 28.8211 21° North  Level Estimated
11:57AM 40.9769 28.8211 21° North  Level Estimated
11:58AM 40.9769 28.8211 21° North  Level Estimated
11:59AM 40.9769 28.8211 21° North  Level Estimated
12:00PM 40.9769 28.8211 21° North  Level Estimated
12:01PM 40.9769 28.8211 21° North  Level Estimated
12:02PM 40.9769 28.8211 21° North  Level Estimated
12:03PM 40.9769 28.8211 21° North  Level Estimated
12:04PM 40.9769 28.8211 21° North  Level Estimated
12:05PM 40.9769 28.8211 21° North  Level Estimated
12:06PM 40.9769 28.8211 21° North  Level Estimated